createdAt,value
2023-04-03T00:02:04.816Z,3.20
2023-04-03T00:04:35.414Z,4.03
2023-04-03T00:07:02.302Z,3.42
2023-04-03T00:09:32.146Z,3.60
2023-04-03T00:11:59.130Z,3.90
2023-04-03T00:14:26.085Z,4.93
2023-04-03T00:16:53.599Z,4.70
2023-04-03T00:19:29.529Z,4.60
2023-04-03T00:21:57.008Z,4.40
2023-04-03T00:24:24.056Z,4.78
2023-04-03T00:26:51.079Z,1.70
2023-04-03T00:29:17.965Z,4.70
2023-04-03T00:31:45.057Z,3.72
2023-04-03T00:34:12.902Z,4.30
2023-04-03T00:36:40.439Z,3.08
2023-04-03T00:39:07.663Z,3.92
2023-04-03T00:41:34.891Z,3.25
2023-04-03T00:44:19.524Z,3.15
2023-04-03T00:46:49.975Z,3.83
2023-04-03T00:49:17.775Z,4.75
2023-04-03T00:51:48.133Z,4.20
2023-04-03T00:54:15.759Z,5.03
2023-04-03T00:56:42.803Z,1.83
2023-04-03T00:59:22.721Z,3.63
2023-04-03T01:01:54.986Z,5.72
2023-04-03T01:04:37.179Z,5.13
2023-04-03T01:07:28.649Z,1.83
2023-04-03T01:10:00.554Z,4.03
2023-04-03T01:12:39.940Z,5.32
2023-04-03T01:18:20.719Z,3.85
2023-04-03T01:21:20.849Z,2.63
2023-04-03T01:24:29.438Z,4.43
2023-04-03T01:27:09.365Z,4.03
2023-04-03T01:29:37.292Z,3.17
2023-04-03T01:34:47.614Z,2.05
2023-04-03T01:37:27.536Z,2.47
2023-04-03T01:40:43.410Z,3.10
2023-04-03T01:42:58.763Z,3.72
2023-04-03T01:49:03.227Z,3.88
2023-04-03T01:51:33.834Z,2.75
2023-04-03T01:54:14.946Z,5.30
2023-04-03T01:57:09.755Z,3.33
2023-04-03T01:59:49.189Z,3.00
2023-04-03T02:02:31.662Z,2.92
2023-04-03T02:05:04.871Z,3.50
2023-04-03T02:07:44.699Z,2.97
2023-04-03T02:10:21.828Z,3.95
2023-04-03T02:13:36.949Z,4.25
2023-04-03T02:16:34.336Z,3.55
2023-04-03T02:19:02.295Z,2.53
2023-04-03T02:21:29.823Z,2.78
2023-04-03T02:25:02.759Z,1.75
2023-04-03T02:27:06.271Z,2.22
2023-04-03T02:29:51.334Z,2.50
2023-04-03T02:36:00.682Z,2.35
2023-04-03T02:38:41.690Z,3.17
2023-04-03T02:45:15.040Z,4.28
2023-04-03T02:47:44.428Z,4.20
2023-04-03T02:50:21.089Z,4.20
2023-04-03T02:52:48.984Z,2.35
2023-04-03T02:55:37.496Z,4.78
2023-04-03T03:00:59.863Z,5.75
2023-04-03T03:09:30.960Z,4.97
2023-04-03T03:12:01.691Z,5.82
2023-04-03T03:14:29.427Z,4.63
2023-04-03T03:17:13.728Z,4.00
2023-04-03T03:20:31.197Z,5.22
2023-04-03T03:23:31.616Z,3.28
2023-04-03T03:26:26.109Z,3.67
2023-04-03T03:28:58.043Z,5.05
2023-04-03T03:34:14.935Z,4.53
2023-04-03T03:36:42.351Z,2.33
2023-04-03T03:39:08.993Z,3.20
2023-04-03T03:41:37.322Z,2.92
2023-04-03T03:44:04.347Z,1.95
2023-04-03T03:46:31.999Z,2.53
2023-04-03T03:48:59.090Z,2.50
2023-04-03T03:51:26.710Z,3.07
2023-04-03T03:54:22.214Z,2.63
2023-04-03T03:56:47.070Z,2.67
2023-04-03T03:59:15.237Z,1.80
2023-04-03T04:01:42.401Z,3.15
2023-04-03T04:04:09.265Z,3.50
2023-04-03T04:06:36.199Z,1.88
2023-04-03T04:09:02.946Z,2.47
2023-04-03T04:11:29.707Z,4.47
2023-04-03T04:13:56.517Z,6.53
2023-04-03T04:16:24.260Z,4.38
2023-04-03T04:18:51.350Z,3.13
2023-04-03T04:21:18.721Z,2.95
2023-04-03T04:23:48.324Z,5.47
2023-04-03T04:26:15.707Z,4.18
2023-04-03T04:28:42.686Z,3.53
2023-04-03T04:31:10.046Z,5.55
2023-04-03T04:33:37.056Z,3.47
2023-04-03T04:36:04.223Z,4.72
2023-04-03T04:38:31.160Z,2.28
2023-04-03T04:41:01.547Z,4.90
2023-04-03T04:43:28.473Z,3.95
2023-04-03T04:46:11.221Z,3.90
2023-04-03T04:48:38.392Z,3.05
2023-04-03T04:51:05.575Z,3.25
2023-04-03T04:53:36.325Z,3.10
2023-04-03T04:56:03.948Z,4.07
2023-04-03T04:58:31.047Z,2.15
2023-04-03T05:01:03.761Z,3.10
2023-04-03T05:03:31.065Z,6.07
2023-04-03T05:05:58.904Z,5.03
2023-04-03T05:08:28.327Z,5.32
2023-04-03T05:10:56.395Z,3.78
2023-04-03T05:13:23.587Z,6.97
2023-04-03T05:15:53.999Z,5.33
2023-04-03T05:18:21.278Z,3.17
2023-04-03T05:20:51.717Z,1.83
2023-04-03T05:23:24.824Z,3.55
2023-04-03T05:25:54.749Z,1.90
2023-04-03T05:28:24.025Z,3.80
2023-04-03T05:30:56.404Z,3.95
2023-04-03T05:33:27.510Z,3.55
2023-04-03T05:36:05.394Z,5.43
2023-04-03T05:38:35.905Z,3.30
2023-04-03T05:41:03.053Z,5.72
2023-04-03T05:43:30.077Z,4.70
2023-04-03T05:45:57.004Z,3.97
2023-04-03T05:48:24.003Z,5.28
2023-04-03T05:50:51.397Z,6.13
2023-04-03T05:53:26.423Z,6.13
2023-04-03T05:55:53.346Z,8.75
2023-04-03T05:58:20.194Z,5.72
2023-04-03T06:00:46.930Z,5.85
2023-04-03T06:03:14.234Z,6.72
2023-04-03T06:05:41.246Z,7.20
2023-04-03T06:08:17.100Z,6.77
2023-04-03T06:10:47.925Z,5.30
2023-04-03T06:13:20.786Z,5.18
2023-04-03T06:15:48.095Z,5.05
2023-04-03T06:18:28.016Z,5.80
2023-04-03T06:20:54.832Z,3.85
2023-04-03T06:23:22.222Z,5.07
2023-04-03T06:25:49.090Z,5.53
2023-04-03T06:28:15.956Z,8.35
2023-04-03T06:30:44.972Z,7.78
2023-04-03T06:33:29.060Z,7.30
2023-04-03T06:36:00.254Z,7.05
2023-04-03T06:38:31.713Z,9.07
2023-04-03T06:40:59.660Z,7.88
2023-04-03T06:43:26.383Z,6.80
2023-04-03T06:45:53.459Z,6.80
2023-04-03T06:48:20.453Z,8.35
2023-04-03T06:50:47.408Z,6.43
2023-04-03T06:53:14.556Z,7.97
2023-04-03T06:55:42.337Z,6.50
2023-04-03T06:58:09.242Z,4.25
2023-04-03T07:00:35.964Z,5.70
2023-04-03T07:03:02.996Z,12.65
2023-04-03T07:05:30.012Z,7.10
2023-04-03T07:07:57.135Z,5.53
2023-04-03T07:10:23.837Z,5.18
2023-04-03T07:12:54.221Z,5.40
2023-04-03T07:15:21.633Z,4.75
2023-04-03T07:17:48.647Z,5.40
2023-04-03T07:20:16.361Z,6.43
2023-04-03T07:22:43.382Z,7.18
2023-04-03T07:25:11.922Z,5.97
2023-04-03T07:27:38.710Z,10.05
2023-04-03T07:30:09.297Z,5.03
2023-04-03T07:32:36.386Z,14.43
2023-04-03T07:35:13.114Z,9.73
2023-04-03T07:37:40.188Z,6.90
2023-04-03T07:40:09.905Z,12.00
2023-04-03T07:42:37.468Z,14.60
2023-04-03T07:45:05.172Z,5.32
2023-04-03T07:47:32.765Z,5.68
2023-04-03T07:50:00.033Z,4.72
2023-04-03T07:52:29.871Z,6.38
2023-04-03T07:54:57.898Z,7.55
2023-04-03T07:57:25.918Z,8.60
2023-04-03T07:59:53.123Z,6.10
2023-04-03T08:02:22.920Z,2.13
2023-04-03T08:04:53.049Z,1.80
2023-04-03T08:07:19.907Z,1.33
2023-04-03T08:09:46.575Z,2.53
2023-04-03T08:12:16.110Z,1.08
2023-04-03T08:14:52.087Z,3.30
2023-04-03T08:17:18.816Z,1.55
2023-04-03T08:19:45.781Z,1.80
2023-04-03T08:22:12.674Z,2.75
2023-04-03T08:24:48.859Z,2.10
2023-04-03T08:27:23.623Z,3.30
2023-04-03T08:29:50.959Z,9.35
2023-04-03T08:32:17.653Z,3.50
2023-04-03T08:34:44.740Z,1.77
2023-04-03T08:37:23.104Z,3.88
2023-04-03T08:40:03.996Z,1.80
2023-04-03T08:42:57.113Z,3.60
2023-04-03T08:45:45.225Z,1.23
2023-04-03T08:48:23.275Z,1.55
2023-04-03T08:51:03.065Z,1.63
2023-04-03T08:53:35.400Z,1.20
2023-04-03T08:56:12.335Z,1.98
2023-04-03T08:58:57.250Z,2.70
2023-04-03T09:01:45.344Z,1.85
2023-04-03T09:04:20.780Z,1.20
2023-04-03T09:06:53.992Z,1.60
2023-04-03T09:09:35.531Z,0.93
2023-04-03T09:12:10.576Z,3.20
2023-04-03T09:14:43.224Z,2.25
2023-04-03T09:17:40.248Z,2.22
2023-04-03T09:20:25.437Z,1.67
2023-04-03T09:22:56.672Z,1.02
2023-04-03T09:25:32.205Z,3.25
2023-04-03T09:28:00.743Z,7.18
2023-04-03T09:30:28.612Z,0.80
2023-04-03T09:32:59.829Z,5.18
2023-04-03T09:35:47.503Z,1.55
2023-04-03T09:38:18.848Z,0.93
2023-04-03T09:41:49.620Z,2.35
2023-04-03T09:44:31.194Z,1.15
2023-04-03T09:47:31.193Z,1.05
2023-04-03T09:50:16.160Z,0.75
2023-04-03T09:52:45.324Z,0.93
2023-04-03T09:55:19.513Z,0.82
2023-04-03T09:57:47.741Z,3.63
2023-04-03T10:00:27.052Z,0.88
2023-04-03T10:02:57.019Z,0.52
2023-04-03T10:05:34.791Z,1.88
2023-04-03T10:08:35.989Z,1.88
2023-04-03T10:11:15.138Z,0.77
2023-04-03T10:14:02.784Z,0.95
2023-04-03T10:16:46.816Z,0.50
2023-04-03T10:19:22.657Z,0.47
2023-04-03T10:22:00.419Z,0.50
2023-04-03T10:25:01.642Z,0.30
2023-04-03T10:27:46.244Z,0.90
2023-04-03T10:30:22.978Z,1.17
2023-04-03T10:33:02.138Z,0.55
2023-04-03T10:35:54.206Z,1.83
2023-04-03T10:38:38.558Z,0.55
2023-04-03T10:41:22.066Z,1.52
2023-04-03T10:44:07.606Z,7.25
2023-04-03T10:46:44.286Z,4.78
2023-04-03T10:49:32.622Z,1.53
2023-04-03T10:52:28.798Z,0.75
2023-04-03T10:54:58.395Z,0.47
2023-04-03T10:57:26.722Z,1.25
2023-04-03T11:00:05.822Z,0.52
2023-04-03T11:02:47.222Z,0.38
2023-04-03T11:05:27.760Z,1.10
2023-04-03T11:07:57.982Z,1.00
2023-04-03T11:10:36.899Z,0.63
2023-04-03T11:13:14.659Z,1.00
2023-04-03T11:15:42.322Z,0.50
2023-04-03T11:18:21.147Z,0.38
2023-04-03T11:21:02.190Z,1.13
2023-04-03T11:23:48.978Z,1.48
2023-04-03T11:26:23.692Z,0.60
2023-04-03T11:28:57.528Z,0.63
2023-04-03T11:31:36.563Z,2.88
2023-04-03T11:34:18.086Z,0.60
2023-04-03T11:36:55.066Z,2.05
2023-04-03T11:39:39.739Z,1.17
2023-04-03T11:42:35.728Z,1.05
2023-04-03T11:45:29.972Z,0.95
2023-04-03T11:48:16.667Z,1.27
2023-04-03T11:50:51.515Z,0.77
2023-04-03T11:53:18.577Z,0.90
2023-04-03T11:55:51.188Z,2.15
2023-04-03T11:58:20.536Z,1.75
2023-04-03T12:00:53.447Z,2.63
2023-04-03T12:03:30.314Z,1.27
2023-04-03T12:06:17.944Z,0.98
2023-04-03T12:09:02.749Z,1.45
2023-04-03T12:11:35.222Z,1.83
2023-04-03T12:14:02.454Z,1.00
2023-04-03T12:16:47.186Z,0.50
2023-04-03T12:19:22.258Z,1.13
2023-04-03T12:21:59.496Z,3.55
2023-04-03T12:24:34.208Z,1.17
2023-04-03T12:27:01.474Z,3.35
2023-04-03T12:29:34.245Z,0.95
2023-04-03T12:32:33.879Z,4.10
2023-04-03T12:35:07.686Z,2.75
2023-04-03T12:37:49.810Z,3.97
2023-04-03T12:40:49.752Z,2.45
2023-04-03T12:43:51.636Z,1.88
2023-04-03T12:46:27.988Z,2.80
2023-04-03T12:48:58.168Z,2.58
2023-04-03T12:51:41.434Z,2.75
2023-04-03T12:54:43.539Z,3.42
2023-04-03T12:57:22.047Z,2.70
2023-04-03T12:59:50.103Z,3.05
2023-04-03T13:05:24.897Z,1.88
2023-04-03T13:08:00.241Z,3.17
2023-04-03T13:10:27.638Z,2.85
2023-04-03T13:12:58.682Z,4.40
2023-04-03T13:15:31.250Z,2.38
2023-04-03T13:17:58.755Z,5.20
2023-04-03T13:20:33.077Z,5.82
2023-04-03T13:23:13.960Z,8.27
2023-04-03T13:25:50.743Z,5.28
2023-04-03T13:28:25.938Z,24.90
2023-04-03T13:31:08.449Z,12.68
2023-04-03T13:33:41.095Z,8.32
2023-04-03T13:36:19.174Z,6.97
2023-04-03T13:38:46.529Z,10.30
2023-04-03T13:41:33.573Z,7.90
2023-04-03T13:44:24.609Z,4.18
2023-04-03T13:46:53.424Z,3.92
2023-04-03T13:49:30.233Z,2.05
2023-04-03T13:52:07.430Z,1.20
2023-04-03T13:54:38.868Z,1.30
2023-04-03T13:57:15.433Z,1.23
2023-04-03T13:59:45.796Z,6.07
2023-04-03T14:02:23.424Z,15.40
2023-04-03T14:04:59.430Z,11.45
2023-04-03T14:07:27.511Z,8.23
2023-04-03T14:10:05.399Z,6.07
2023-04-03T14:12:46.880Z,3.63
2023-04-03T14:15:21.586Z,11.35
2023-04-03T14:17:48.917Z,10.02
2023-04-03T14:20:22.849Z,5.57
2023-04-03T14:22:56.122Z,6.78
2023-04-03T14:25:29.512Z,5.90
2023-04-03T14:27:57.670Z,6.75
2023-04-03T14:30:33.225Z,9.02
2023-04-03T14:33:12.050Z,6.90
2023-04-03T14:35:43.271Z,4.07
2023-04-03T14:38:32.002Z,3.65
2023-04-03T14:41:16.072Z,5.43
2023-04-03T14:43:45.334Z,3.40
2023-04-03T14:46:56.039Z,2.53
2023-04-03T14:49:27.599Z,7.65
2023-04-03T14:56:05.719Z,5.25
2023-04-03T14:58:33.195Z,10.40
2023-04-03T15:01:03.631Z,9.00
2023-04-03T15:03:47.194Z,9.02
2023-04-03T15:06:16.104Z,9.48
2023-04-03T15:08:51.595Z,10.70
2023-04-03T15:11:19.280Z,7.93
2023-04-03T15:13:50.333Z,7.47
2023-04-03T15:16:21.943Z,6.82
2023-04-03T15:18:52.396Z,12.18
2023-04-03T15:21:23.200Z,13.07
2023-04-03T15:24:07.984Z,11.55
2023-04-03T15:26:42.423Z,9.68
2023-04-03T15:29:16.877Z,10.88
2023-04-03T15:31:47.633Z,11.48
2023-04-03T15:34:23.343Z,7.45
2023-04-03T15:36:58.582Z,6.15
2023-04-03T15:39:40.914Z,6.00
2023-04-03T15:42:07.987Z,3.78
2023-04-03T15:44:36.514Z,4.53
2023-04-03T15:47:07.851Z,4.68
2023-04-03T15:49:36.352Z,2.33
2023-04-03T15:52:32.208Z,2.17
2023-04-03T15:55:30.048Z,4.50
2023-04-03T15:57:50.618Z,6.15
2023-04-03T16:00:45.594Z,3.08
2023-04-03T16:03:17.616Z,3.83
2023-04-03T16:08:52.490Z,11.63
2023-04-03T16:11:29.330Z,10.95
2023-04-03T16:14:07.038Z,12.87
2023-04-03T16:16:41.286Z,11.60
2023-04-03T16:19:13.221Z,11.75
2023-04-03T16:21:44.633Z,11.07
2023-04-03T16:24:19.278Z,10.05
2023-04-03T16:26:48.049Z,8.85
2023-04-03T16:29:36.970Z,5.38
2023-04-03T16:32:14.210Z,5.70
2023-04-03T16:34:42.029Z,10.35
2023-04-03T16:37:09.753Z,9.18
2023-04-03T16:39:36.819Z,19.80
2023-04-03T16:42:03.775Z,18.03
2023-04-03T16:44:34.547Z,10.00
2023-04-03T16:47:05.611Z,8.40
2023-04-03T16:50:53.424Z,4.72
2023-04-03T16:53:28.102Z,4.20
2023-04-03T16:55:59.987Z,5.03
2023-04-03T16:59:09.741Z,4.18
2023-04-03T17:01:45.253Z,4.82
2023-04-03T17:04:22.783Z,3.00
2023-04-03T17:07:17.345Z,5.40
2023-04-03T17:10:15.281Z,7.95
2023-04-03T17:12:59.240Z,5.80
2023-04-03T17:16:05.565Z,6.22
2023-04-03T17:18:43.907Z,4.97
2023-04-03T17:24:45.982Z,13.93
2023-04-03T17:27:38.732Z,73.37
2023-04-03T17:30:10.506Z,34.60
2023-04-03T17:32:42.317Z,18.20
2023-04-03T17:36:41.864Z,14.57
2023-04-03T17:39:02.895Z,10.40
2023-04-03T17:41:30.050Z,9.48
2023-04-03T17:44:05.625Z,6.22
2023-04-03T17:47:12.503Z,5.82
2023-04-03T17:49:58.674Z,8.93
2023-04-03T17:52:42.100Z,8.52
2023-04-03T17:55:22.881Z,6.88
2023-04-03T17:59:09.539Z,3.65
2023-04-03T18:12:21.484Z,5.47
2023-04-03T18:19:06.780Z,4.80
2023-04-03T18:23:40.130Z,4.50
2023-04-03T18:26:12.280Z,3.17
2023-04-03T18:28:57.450Z,3.58
2023-04-03T18:32:03.351Z,4.55
2023-04-03T18:34:33.614Z,4.55
2023-04-03T18:37:06.445Z,3.80
2023-04-03T18:39:34.241Z,5.32
2023-04-03T18:42:11.660Z,4.57
2023-04-03T18:44:40.716Z,13.50
2023-04-03T18:47:14.612Z,16.10
2023-04-03T18:52:55.885Z,6.13
2023-04-03T18:55:23.761Z,8.55
2023-04-03T18:58:44.278Z,7.38
2023-04-03T19:01:15.784Z,6.18
2023-04-03T19:03:54.272Z,4.93
2023-04-03T19:06:21.243Z,6.15
2023-04-03T19:08:50.927Z,5.80
2023-04-03T19:12:07.791Z,7.70
2023-04-03T19:14:59.529Z,8.32
2023-04-03T19:17:37.473Z,6.57
2023-04-03T19:20:08.747Z,5.13
2023-04-03T19:23:13.622Z,5.88
2023-04-03T19:25:41.607Z,5.00
2023-04-03T19:30:52.198Z,6.00
2023-04-03T19:33:30.615Z,5.13
2023-04-03T19:36:12.484Z,4.78
2023-04-03T19:38:51.790Z,5.57
2023-04-03T19:41:40.967Z,6.68
2023-04-03T19:44:09.639Z,6.57
2023-04-03T19:46:56.966Z,6.55
2023-04-03T19:49:25.253Z,7.05
2023-04-03T19:51:59.435Z,7.50
2023-04-03T19:54:37.783Z,7.65
2023-04-03T19:57:09.672Z,5.95
2023-04-03T19:59:43.211Z,4.75
2023-04-03T20:02:29.516Z,4.28
2023-04-03T20:04:58.335Z,3.67
2023-04-03T20:07:55.461Z,6.32
2023-04-03T20:10:29.904Z,4.75
2023-04-03T20:12:59.568Z,5.68
2023-04-03T20:15:27.552Z,5.93
2023-04-03T20:20:44.262Z,4.30
2023-04-03T20:23:21.953Z,4.30
2023-04-03T20:26:05.839Z,4.30
2023-04-03T20:28:46.907Z,4.35
2023-04-03T20:34:08.041Z,3.30
2023-04-03T20:36:36.502Z,3.75
2023-04-03T20:39:15.600Z,4.13
2023-04-03T20:41:46.324Z,5.00
2023-04-03T20:44:20.490Z,5.28
2023-04-03T20:47:11.981Z,3.65
2023-04-03T20:49:44.481Z,5.03
2023-04-03T20:52:14.724Z,4.47
2023-04-03T20:54:49.880Z,5.28
2023-04-03T20:57:23.545Z,5.13
2023-04-03T21:02:40.984Z,5.32
2023-04-03T21:05:15.162Z,5.82
2023-04-03T21:08:24.156Z,4.45
2023-04-03T21:11:32.346Z,4.63
2023-04-03T21:14:40.312Z,4.40
2023-04-03T21:17:08.363Z,3.78
2023-04-03T21:19:40.547Z,4.20
2023-04-03T21:22:11.426Z,4.00
2023-04-03T21:24:39.362Z,3.45
2023-04-03T21:27:25.051Z,2.97
2023-04-03T21:29:53.480Z,4.57
2023-04-03T21:32:21.448Z,4.55
2023-04-03T21:34:48.703Z,4.50
2023-04-03T21:37:16.463Z,5.00
2023-04-03T21:39:45.819Z,4.40
2023-04-03T21:42:13.279Z,3.92
2023-04-03T21:47:30.757Z,4.75
2023-04-03T21:49:59.842Z,5.07
2023-04-03T21:52:28.068Z,5.47
2023-04-03T21:55:00.781Z,3.97
2023-04-03T21:57:29.755Z,4.82
2023-04-03T21:59:57.750Z,4.38
2023-04-03T22:02:27.612Z,4.82
2023-04-03T22:05:10.249Z,5.32
2023-04-03T22:07:47.370Z,4.40
2023-04-03T22:10:26.300Z,4.55
2023-04-03T22:12:56.914Z,4.75
2023-04-03T22:15:27.849Z,3.78
2023-04-03T22:17:55.398Z,4.60
2023-04-03T22:20:38.419Z,3.78
2023-04-03T22:23:06.832Z,4.78
2023-04-03T22:28:22.523Z,4.28
2023-04-03T22:30:50.237Z,5.15
2023-04-03T22:36:22.284Z,5.50
2023-04-03T22:38:50.239Z,3.75
2023-04-03T22:41:18.660Z,5.53
2023-04-03T22:43:49.354Z,4.30
2023-04-03T22:46:20.915Z,5.45
2023-04-03T22:48:51.932Z,3.58
2023-04-03T22:51:21.007Z,5.13
2023-04-03T22:53:49.505Z,6.65
2023-04-03T22:56:23.238Z,3.47
2023-04-03T22:58:52.788Z,4.32
2023-04-03T23:01:23.821Z,4.28
2023-04-03T23:03:52.332Z,3.50
2023-04-03T23:06:23.971Z,3.75
2023-04-03T23:08:51.633Z,3.38
2023-04-03T23:11:19.668Z,4.18
2023-04-03T23:14:00.168Z,5.28
2023-04-03T23:16:28.087Z,3.88
2023-04-03T23:21:25.393Z,6.35
2023-04-03T23:23:55.356Z,4.65
2023-04-03T23:26:27.062Z,4.82
2023-04-03T23:28:59.350Z,4.35
2023-04-03T23:31:29.843Z,6.70
2023-04-03T23:34:00.456Z,10.50
2023-04-03T23:36:28.773Z,6.30
2023-04-03T23:39:16.019Z,6.28
2023-04-03T23:41:48.651Z,4.18
2023-04-03T23:44:17.108Z,6.45
2023-04-03T23:51:40.892Z,5.85
2023-04-03T23:56:44.683Z,5.22
2023-04-03T23:59:12.593Z,6.35
